logo

United by the hobby
of model aircraft flying

Promoting safe
radio model flying

Sharing the experience
of RC flying

Dedicated to the sport of model aviation

Meeting
Venue

Third Monday Each Month
Crown Point Civic Center
101 S East Street
Crown Point, IN 46307

Read More

email:
[javascript protected email address]

View our events calendar

2020

Weather Conditions

Elev 730 ft    41.19°N  87.16°W

73.9 °F
230°
6 m/h
Wind Variable Wind from SW

Current Conditions

Pressure 30.11 in
Visibility 10 miles
Clouds Clear
Dew Point 54.0 °F
Humidity 49 %
Rainfall 0.00 in
 
METAR KVPZ 062356Z AUTO 23005KT 10SM CLR 23/12 A3011 RMK AO2 SLP194 T02330122 10250 20222 56005

Forecast

INFORMATION PROVIDED BY THE INDIANA STATE FORECAST - NATIONAL WEATHER SERVICE
Sunrise & Sunset
August 6, 2020
S:43 AM

4:38 PM
High 83 | Low 67°F
August 7, 2020
S:43 AM

4:38 PM
High | Low °F
 

our gallery

View All